sensor_id;sensor_type;location;lat;lon;timestamp;P1;durP1;ratioP1;P2;durP2;ratioP2
76098;SDS011;64828;49.956;8.636;2023-02-28T00:00:07;4.15;;;2.65;;
76098;SDS011;64828;49.956;8.636;2023-02-28T00:00:25;3.72;;;2.60;;
76098;SDS011;64828;49.956;8.636;2023-02-28T00:00:41;3.72;;;2.50;;
76098;SDS011;64828;49.956;8.636;2023-02-28T00:00:57;2.78;;;2.25;;
76098;SDS011;64828;49.956;8.636;2023-02-28T00:01:14;4.35;;;2.22;;
76098;SDS011;64828;49.956;8.636;2023-02-28T00:01:30;4.47;;;2.50;;
76098;SDS011;64828;49.956;8.636;2023-02-28T00:01:47;3.08;;;2.65;;
76098;SDS011;64828;49.956;8.636;2023-02-28T00:02:02;3.28;;;2.60;;
76098;SDS011;64828;49.956;8.636;2023-02-28T00:02:18;3.88;;;2.78;;
76098;SDS011;64828;49.956;8.636;2023-02-28T00:02:34;4.50;;;2.90;;
76098;SDS011;64828;49.956;8.636;2023-02-28T00:02:49;4.68;;;2.60;;
76098;SDS011;64828;49.956;8.636;2023-02-28T00:03:05;4.20;;;2.67;;
76098;SDS011;64828;49.956;8.636;2023-02-28T00:03:21;5.88;;;2.90;;
76098;SDS011;64828;49.956;8.636;2023-02-28T00:03:37;5.57;;;2.90;;
76098;SDS011;64828;49.956;8.636;2023-02-28T00:03:52;4.78;;;2.70;;
76098;SDS011;64828;49.956;8.636;2023-02-28T00:04:08;5.00;;;2.50;;
76098;SDS011;64828;49.956;8.636;2023-02-28T00:04:24;4.05;;;2.65;;
76098;SDS011;64828;49.956;8.636;2023-02-28T00:04:39;4.20;;;2.75;;
76098;SDS011;64828;49.956;8.636;2023-02-28T00:04:55;3.60;;;2.60;;
76098;SDS011;64828;49.956;8.636;2023-02-28T00:05:17;4.15;;;2.60;;
76098;SDS011;64828;49.956;8.636;2023-02-28T00:05:36;4.15;;;2.53;;
76098;SDS011;64828;49.956;8.636;2023-02-28T00:05:52;3.90;;;2.80;;
76098;SDS011;64828;49.956;8.636;2023-02-28T00:06:08;4.13;;;3.00;;
76098;SDS011;64828;49.956;8.636;2023-02-28T00:06:27;4.90;;;2.80;;
76098;SDS011;64828;49.956;8.636;2023-02-28T00:06:42;4.28;;;2.50;;
76098;SDS011;64828;49.956;8.636;2023-02-28T00:06:58;3.80;;;2.58;;
76098;SDS011;64828;49.956;8.636;2023-02-28T00:07:14;3.93;;;2.90;;
76098;SDS011;64828;49.956;8.636;2023-02-28T00:07:30;4.57;;;2.67;;
76098;SDS011;64828;49.956;8.636;2023-02-28T00:07:46;4.43;;;2.47;;
76098;SDS011;64828;49.956;8.636;2023-02-28T00:08:05;3.80;;;2.63;;
76098;SDS011;64828;49.956;8.636;2023-02-28T00:08:20;4.17;;;2.60;;
76098;SDS011;64828;49.956;8.636;2023-02-28T00:08:36;3.95;;;2.65;;
76098;SDS011;64828;49.956;8.636;2023-02-28T00:08:53;3.70;;;2.63;;
76098;SDS011;64828;49.956;8.636;2023-02-28T00:09:09;3.58;;;2.60;;
76098;SDS011;64828;49.956;8.636;2023-02-28T00:09:25;3.50;;;2.70;;
76098;SDS011;64828;49.956;8.636;2023-02-28T00:09:40;3.67;;;2.53;;
76098;SDS011;64828;49.956;8.636;2023-02-28T00:09:56;3.85;;;2.47;;
76098;SDS011;64828;49.956;8.636;2023-02-28T00:10:16;3.97;;;2.63;;
76098;SDS011;64828;49.956;8.636;2023-02-28T00:10:38;3.80;;;2.50;;
76098;SDS011;64828;49.956;8.636;2023-02-28T00:10:53;3.80;;;2.58;;
76098;SDS011;64828;49.956;8.636;2023-02-28T00:11:10;3.92;;;2.70;;
76098;SDS011;64828;49.956;8.636;2023-02-28T00:11:28;3.75;;;2.72;;
76098;SDS011;64828;49.956;8.636;2023-02-28T00:11:46;3.47;;;2.58;;
76098;SDS011;64828;49.956;8.636;2023-02-28T00:12:02;3.33;;;2.50;;
76098;SDS011;64828;49.956;8.636;2023-02-28T00:12:24;3.72;;;2.50;;
76098;SDS011;64828;49.956;8.636;2023-02-28T00:12:41;3.33;;;2.50;;
76098;SDS011;64828;49.956;8.636;2023-02-28T00:13:04;4.57;;;2.67;;
76098;SDS011;64828;49.956;8.636;2023-02-28T00:13:21;5.10;;;2.90;;
76098;SDS011;64828;49.956;8.636;2023-02-28T00:13:37;4.40;;;2.83;;
76098;SDS011;64828;49.956;8.636;2023-02-28T00:13:57;4.55;;;2.78;;
76098;SDS011;64828;49.956;8.636;2023-02-28T00:14:14;4.15;;;2.53;;
76098;SDS011;64828;49.956;8.636;2023-02-28T00:14:29;3.63;;;2.53;;
76098;SDS011;64828;49.956;8.636;2023-02-28T00:14:45;3.35;;;2.70;;
76098;SDS011;64828;49.956;8.636;2023-02-28T00:15:01;3.58;;;2.80;;
76098;SDS011;64828;49.956;8.636;2023-02-28T00:15:20;3.67;;;2.50;;
76098;SDS011;64828;49.956;8.636;2023-02-28T00:15:37;3.70;;;2.45;;
76098;SDS011;64828;49.956;8.636;2023-02-28T00:16:03;4.05;;;2.60;;
76098;SDS011;64828;49.956;8.636;2023-02-28T00:16:28;3.92;;;2.50;;
76098;SDS011;64828;49.956;8.636;2023-02-28T00:16:43;3.80;;;2.67;;
76098;SDS011;64828;49.956;8.636;2023-02-28T00:16:59;3.88;;;2.80;;
76098;SDS011;64828;49.956;8.636;2023-02-28T00:17:14;3.37;;;2.70;;
76098;SDS011;64828;49.956;8.636;2023-02-28T00:17:32;3.63;;;2.67;;
76098;SDS011;64828;49.956;8.636;2023-02-28T00:17:48;3.75;;;2.70;;
76098;SDS011;64828;49.956;8.636;2023-02-28T00:18:04;3.72;;;2.80;;
76098;SDS011;64828;49.956;8.636;2023-02-28T00:18:20;3.40;;;2.72;;
76098;SDS011;64828;49.956;8.636;2023-02-28T00:18:36;3.77;;;2.70;;
76098;SDS011;64828;49.956;8.636;2023-02-28T00:18:52;4.10;;;2.72;;
76098;SDS011;64828;49.956;8.636;2023-02-28T00:19:08;4.00;;;2.85;;
76098;SDS011;64828;49.956;8.636;2023-02-28T00:19:24;4.00;;;2.88;;
76098;SDS011;64828;49.956;8.636;2023-02-28T00:19:39;3.47;;;2.70;;
76098;SDS011;64828;49.956;8.636;2023-02-28T00:19:55;3.38;;;2.63;;
76098;SDS011;64828;49.956;8.636;2023-02-28T00:20:11;3.92;;;2.67;;
76098;SDS011;64828;49.956;8.636;2023-02-28T00:20:28;3.80;;;2.60;;
76098;SDS011;64828;49.956;8.636;2023-02-28T00:20:44;3.72;;;2.60;;
76098;SDS011;64828;49.956;8.636;2023-02-28T00:21:00;3.70;;;2.80;;
76098;SDS011;64828;49.956;8.636;2023-02-28T00:21:16;3.15;;;2.67;;
76098;SDS011;64828;49.956;8.636;2023-02-28T00:21:34;3.70;;;2.50;;
76098;SDS011;64828;49.956;8.636;2023-02-28T00:21:50;4.28;;;2.50;;
76098;SDS011;64828;49.956;8.636;2023-02-28T00:22:06;4.53;;;2.63;;
76098;SDS011;64828;49.956;8.636;2023-02-28T00:22:21;5.20;;;2.80;;
76098;SDS011;64828;49.956;8.636;2023-02-28T00:22:48;5.22;;;2.92;;
76098;SDS011;64828;49.956;8.636;2023-02-28T00:23:05;4.47;;;3.20;;
76098;SDS011;64828;49.956;8.636;2023-02-28T00:23:21;4.10;;;2.93;;
76098;SDS011;64828;49.956;8.636;2023-02-28T00:23:37;3.67;;;2.63;;
76098;SDS011;64828;49.956;8.636;2023-02-28T00:23:52;3.70;;;2.60;;
76098;SDS011;64828;49.956;8.636;2023-02-28T00:24:08;3.60;;;2.80;;
76098;SDS011;64828;49.956;8.636;2023-02-28T00:24:24;3.72;;;2.75;;
76098;SDS011;64828;49.956;8.636;2023-02-28T00:24:39;3.37;;;2.53;;
76098;SDS011;64828;49.956;8.636;2023-02-28T00:24:55;3.43;;;2.50;;
76098;SDS011;64828;49.956;8.636;2023-02-28T00:25:11;4.45;;;2.70;;
76098;SDS011;64828;49.956;8.636;2023-02-28T00:25:30;4.57;;;2.90;;
76098;SDS011;64828;49.956;8.636;2023-02-28T00:25:46;3.53;;;2.57;;
76098;SDS011;64828;49.956;8.636;2023-02-28T00:26:02;3.38;;;2.60;;
76098;SDS011;64828;49.956;8.636;2023-02-28T00:26:18;3.65;;;2.70;;
76098;SDS011;64828;49.956;8.636;2023-02-28T00:26:34;3.80;;;2.80;;
76098;SDS011;64828;49.956;8.636;2023-02-28T00:26:49;3.90;;;2.60;;
76098;SDS011;64828;49.956;8.636;2023-02-28T00:27:05;3.73;;;2.53;;
76098;SDS011;64828;49.956;8.636;2023-02-28T00:27:21;3.53;;;2.70;;
76098;SDS011;64828;49.956;8.636;2023-02-28T00:27:37;3.90;;;2.75;;
76098;SDS011;64828;49.956;8.636;2023-02-28T00:27:54;3.90;;;2.85;;
76098;SDS011;64828;49.956;8.636;2023-02-28T00:28:10;4.00;;;2.80;;
76098;SDS011;64828;49.956;8.636;2023-02-28T00:28:26;3.80;;;2.78;;
76098;SDS011;64828;49.956;8.636;2023-02-28T00:28:41;4.18;;;2.80;;
76098;SDS011;64828;49.956;8.636;2023-02-28T00:28:57;4.53;;;2.77;;
76098;SDS011;64828;49.956;8.636;2023-02-28T00:29:13;4.15;;;2.75;;
76098;SDS011;64828;49.956;8.636;2023-02-28T00:29:28;3.70;;;2.75;;
76098;SDS011;64828;49.956;8.636;2023-02-28T00:29:45;3.93;;;2.60;;
76098;SDS011;64828;49.956;8.636;2023-02-28T00:30:02;4.55;;;2.70;;
76098;SDS011;64828;49.956;8.636;2023-02-28T00:30:20;4.20;;;2.85;;
76098;SDS011;64828;49.956;8.636;2023-02-28T00:30:38;3.60;;;2.50;;
76098;SDS011;64828;49.956;8.636;2023-02-28T00:30:54;4.45;;;2.60;;
76098;SDS011;64828;49.956;8.636;2023-02-28T00:31:09;4.78;;;2.70;;
76098;SDS011;64828;49.956;8.636;2023-02-28T00:31:25;3.43;;;2.70;;
76098;SDS011;64828;49.956;8.636;2023-02-28T00:31:40;3.63;;;2.80;;
76098;SDS011;64828;49.956;8.636;2023-02-28T00:31:56;4.18;;;2.70;;
76098;SDS011;64828;49.956;8.636;2023-02-28T00:32:12;4.00;;;2.70;;
76098;SDS011;64828;49.956;8.636;2023-02-28T00:32:28;3.72;;;2.80;;
76098;SDS011;64828;49.956;8.636;2023-02-28T00:32:44;4.20;;;2.92;;
76098;SDS011;64828;49.956;8.636;2023-02-28T00:33:00;3.60;;;2.83;;
76098;SDS011;64828;49.956;8.636;2023-02-28T00:33:15;3.60;;;2.83;;
76098;SDS011;64828;49.956;8.636;2023-02-28T00:33:31;4.63;;;2.90;;
76098;SDS011;64828;49.956;8.636;2023-02-28T00:33:47;4.93;;;2.85;;
76098;SDS011;64828;49.956;8.636;2023-02-28T00:34:03;4.70;;;2.80;;
76098;SDS011;64828;49.956;8.636;2023-02-28T00:34:18;3.88;;;2.70;;
76098;SDS011;64828;49.956;8.636;2023-02-28T00:34:34;3.58;;;2.80;;
76098;SDS011;64828;49.956;8.636;2023-02-28T00:34:52;4.60;;;3.03;;
76098;SDS011;64828;49.956;8.636;2023-02-28T00:35:09;4.93;;;3.00;;
76098;SDS011;64828;49.956;8.636;2023-02-28T00:35:25;5.07;;;2.88;;
76098;SDS011;64828;49.956;8.636;2023-02-28T00:35:41;4.00;;;2.70;;
76098;SDS011;64828;49.956;8.636;2023-02-28T00:36:01;4.07;;;2.80;;
76098;SDS011;64828;49.956;8.636;2023-02-28T00:36:22;4.30;;;2.80;;
76098;SDS011;64828;49.956;8.636;2023-02-28T00:36:38;4.22;;;2.80;;
76098;SDS011;64828;49.956;8.636;2023-02-28T00:36:55;3.92;;;2.80;;
76098;SDS011;64828;49.956;8.636;2023-02-28T00:37:11;4.00;;;2.85;;
76098;SDS011;64828;49.956;8.636;2023-02-28T00:37:27;3.70;;;2.90;;
76098;SDS011;64828;49.956;8.636;2023-02-28T00:37:43;3.90;;;2.90;;
76098;SDS011;64828;49.956;8.636;2023-02-28T00:37:59;3.70;;;2.80;;
76098;SDS011;64828;49.956;8.636;2023-02-28T00:38:15;3.93;;;3.00;;
76098;SDS011;64828;49.956;8.636;2023-02-28T00:38:31;4.47;;;3.08;;
76098;SDS011;64828;49.956;8.636;2023-02-28T00:38:46;4.37;;;3.00;;
76098;SDS011;64828;49.956;8.636;2023-02-28T00:39:02;4.18;;;2.90;;
76098;SDS011;64828;49.956;8.636;2023-02-28T00:39:18;4.85;;;2.90;;
76098;SDS011;64828;49.956;8.636;2023-02-28T00:39:34;4.60;;;3.00;;
76098;SDS011;64828;49.956;8.636;2023-02-28T00:39:52;4.38;;;2.90;;
76098;SDS011;64828;49.956;8.636;2023-02-28T00:40:08;4.47;;;2.83;;
76098;SDS011;64828;49.956;8.636;2023-02-28T00:40:26;5.32;;;2.90;;
76098;SDS011;64828;49.956;8.636;2023-02-28T00:40:42;5.53;;;3.10;;
76098;SDS011;64828;49.956;8.636;2023-02-28T00:40:57;4.97;;;3.00;;
76098;SDS011;64828;49.956;8.636;2023-02-28T00:41:19;3.88;;;3.00;;
76098;SDS011;64828;49.956;8.636;2023-02-28T00:41:34;4.53;;;3.13;;
76098;SDS011;64828;49.956;8.636;2023-02-28T00:41:50;5.00;;;3.30;;
76098;SDS011;64828;49.956;8.636;2023-02-28T00:42:06;4.70;;;3.07;;
76098;SDS011;64828;49.956;8.636;2023-02-28T00:42:23;3.95;;;2.80;;
76098;SDS011;64828;49.956;8.636;2023-02-28T00:42:39;3.55;;;2.75;;
76098;SDS011;64828;49.956;8.636;2023-02-28T00:42:55;3.92;;;2.83;;
76098;SDS011;64828;49.956;8.636;2023-02-28T00:43:11;4.50;;;3.00;;
76098;SDS011;64828;49.956;8.636;2023-02-28T00:43:26;4.13;;;3.03;;
76098;SDS011;64828;49.956;8.636;2023-02-28T00:43:42;3.60;;;3.03;;
76098;SDS011;64828;49.956;8.636;2023-02-28T00:43:58;4.00;;;2.95;;
76098;SDS011;64828;49.956;8.636;2023-02-28T00:44:13;4.33;;;2.90;;
76098;SDS011;64828;49.956;8.636;2023-02-28T00:44:29;4.60;;;3.10;;
76098;SDS011;64828;49.956;8.636;2023-02-28T00:44:45;4.43;;;3.00;;
76098;SDS011;64828;49.956;8.636;2023-02-28T00:45:01;4.73;;;3.20;;
76098;SDS011;64828;49.956;8.636;2023-02-28T00:45:19;4.47;;;3.00;;
76098;SDS011;64828;49.956;8.636;2023-02-28T00:45:35;4.22;;;2.83;;
76098;SDS011;64828;49.956;8.636;2023-02-28T00:45:51;5.65;;;3.10;;
76098;SDS011;64828;49.956;8.636;2023-02-28T00:46:07;5.10;;;2.97;;
76098;SDS011;64828;49.956;8.636;2023-02-28T00:46:22;4.88;;;3.15;;
76098;SDS011;64828;49.956;8.636;2023-02-28T00:46:38;5.10;;;3.27;;
76098;SDS011;64828;49.956;8.636;2023-02-28T00:46:54;4.57;;;3.10;;
76098;SDS011;64828;49.956;8.636;2023-02-28T00:47:10;4.10;;;2.97;;
76098;SDS011;64828;49.956;8.636;2023-02-28T00:47:26;3.92;;;2.85;;
76098;SDS011;64828;49.956;8.636;2023-02-28T00:47:41;4.07;;;2.80;;
76098;SDS011;64828;49.956;8.636;2023-02-28T00:47:57;4.85;;;2.78;;
76098;SDS011;64828;49.956;8.636;2023-02-28T00:48:12;5.45;;;2.83;;
76098;SDS011;64828;49.956;8.636;2023-02-28T00:48:28;4.13;;;3.00;;
76098;SDS011;64828;49.956;8.636;2023-02-28T00:48:44;4.22;;;3.03;;
76098;SDS011;64828;49.956;8.636;2023-02-28T00:49:00;4.97;;;3.13;;
76098;SDS011;64828;49.956;8.636;2023-02-28T00:49:15;5.18;;;3.15;;
76098;SDS011;64828;49.956;8.636;2023-02-28T00:49:31;4.60;;;3.07;;
76098;SDS011;64828;49.956;8.636;2023-02-28T00:49:47;4.10;;;3.10;;
76098;SDS011;64828;49.956;8.636;2023-02-28T00:50:03;3.70;;;2.80;;
76098;SDS011;64828;49.956;8.636;2023-02-28T00:50:20;4.28;;;2.83;;
76098;SDS011;64828;49.956;8.636;2023-02-28T00:50:36;4.65;;;3.03;;
76098;SDS011;64828;49.956;8.636;2023-02-28T00:50:51;4.72;;;2.90;;
76098;SDS011;64828;49.956;8.636;2023-02-28T00:51:07;4.97;;;2.87;;
76098;SDS011;64828;49.956;8.636;2023-02-28T00:51:23;4.55;;;2.90;;
76098;SDS011;64828;49.956;8.636;2023-02-28T00:51:38;4.82;;;3.00;;
76098;SDS011;64828;49.956;8.636;2023-02-28T00:51:54;4.77;;;3.03;;
76098;SDS011;64828;49.956;8.636;2023-02-28T00:52:10;4.63;;;3.13;;
76098;SDS011;64828;49.956;8.636;2023-02-28T00:52:26;4.67;;;3.00;;
76098;SDS011;64828;49.956;8.636;2023-02-28T00:52:42;4.22;;;2.97;;
76098;SDS011;64828;49.956;8.636;2023-02-28T00:52:57;4.75;;;3.22;;
76098;SDS011;64828;49.956;8.636;2023-02-28T00:53:13;5.00;;;3.27;;
76098;SDS011;64828;49.956;8.636;2023-02-28T00:53:28;4.53;;;3.00;;
76098;SDS011;64828;49.956;8.636;2023-02-28T00:53:44;3.90;;;2.80;;
76098;SDS011;64828;49.956;8.636;2023-02-28T00:54:00;4.50;;;3.10;;
76098;SDS011;64828;49.956;8.636;2023-02-28T00:54:16;5.07;;;3.42;;
76098;SDS011;64828;49.956;8.636;2023-02-28T00:54:32;4.30;;;3.22;;
76098;SDS011;64828;49.956;8.636;2023-02-28T00:54:47;4.18;;;2.97;;
76098;SDS011;64828;49.956;8.636;2023-02-28T00:55:03;5.00;;;3.10;;
76098;SDS011;64828;49.956;8.636;2023-02-28T00:55:19;4.93;;;3.03;;
76098;SDS011;64828;49.956;8.636;2023-02-28T00:55:35;4.33;;;3.00;;
76098;SDS011;64828;49.956;8.636;2023-02-28T00:55:50;4.53;;;3.15;;
76098;SDS011;64828;49.956;8.636;2023-02-28T00:56:06;4.70;;;3.00;;
76098;SDS011;64828;49.956;8.636;2023-02-28T00:56:22;4.43;;;2.97;;
76098;SDS011;64828;49.956;8.636;2023-02-28T00:56:37;7.13;;;3.22;;
76098;SDS011;64828;49.956;8.636;2023-02-28T00:56:53;6.57;;;3.20;;
76098;SDS011;64828;49.956;8.636;2023-02-28T00:57:09;4.65;;;3.20;;
76098;SDS011;64828;49.956;8.636;2023-02-28T00:57:24;5.30;;;3.17;;
76098;SDS011;64828;49.956;8.636;2023-02-28T00:57:41;4.18;;;2.97;;
76098;SDS011;64828;49.956;8.636;2023-02-28T00:57:56;3.75;;;3.05;;
76098;SDS011;64828;49.956;8.636;2023-02-28T00:58:12;4.20;;;3.20;;
76098;SDS011;64828;49.956;8.636;2023-02-28T00:58:28;4.00;;;3.00;;
76098;SDS011;64828;49.956;8.636;2023-02-28T00:58:43;4.32;;;3.17;;
76098;SDS011;64828;49.956;8.636;2023-02-28T00:58:59;4.47;;;3.20;;
76098;SDS011;64828;49.956;8.636;2023-02-28T00:59:15;3.95;;;3.05;;
76098;SDS011;64828;49.956;8.636;2023-02-28T00:59:32;4.20;;;3.03;;
76098;SDS011;64828;49.956;8.636;2023-02-28T00:59:48;4.60;;;3.10;;
76098;SDS011;64828;49.956;8.636;2023-02-28T01:00:04;5.07;;;3.25;;
76098;SDS011;64828;49.956;8.636;2023-02-28T01:00:21;4.97;;;3.20;;
76098;SDS011;64828;49.956;8.636;2023-02-28T01:00:36;5.15;;;3.05;;
76098;SDS011;64828;49.956;8.636;2023-02-28T01:00:52;5.80;;;3.20;;
76098;SDS011;64828;49.956;8.636;2023-02-28T01:01:08;4.28;;;3.13;;
76098;SDS011;64828;49.956;8.636;2023-02-28T01:01:24;4.40;;;3.13;;
76098;SDS011;64828;49.956;8.636;2023-02-28T01:01:40;4.60;;;3.10;;
76098;SDS011;64828;49.956;8.636;2023-02-28T01:01:56;4.13;;;2.90;;
76098;SDS011;64828;49.956;8.636;2023-02-28T01:02:11;4.00;;;3.20;;
76098;SDS011;64828;49.956;8.636;2023-02-28T01:02:27;4.45;;;3.33;;
76098;SDS011;64828;49.956;8.636;2023-02-28T01:02:43;4.90;;;3.30;;
76098;SDS011;64828;49.956;8.636;2023-02-28T01:02:58;5.23;;;3.10;;
76098;SDS011;64828;49.956;8.636;2023-02-28T01:03:15;5.13;;;3.00;;
76098;SDS011;64828;49.956;8.636;2023-02-28T01:03:32;4.05;;;2.95;;
76098;SDS011;64828;49.956;8.636;2023-02-28T01:03:48;4.15;;;2.90;;
76098;SDS011;64828;49.956;8.636;2023-02-28T01:04:04;3.83;;;3.13;;
76098;SDS011;64828;49.956;8.636;2023-02-28T01:04:19;5.00;;;3.40;;
76098;SDS011;64828;49.956;8.636;2023-02-28T01:04:35;5.00;;;3.28;;
76098;SDS011;64828;49.956;8.636;2023-02-28T01:04:51;4.33;;;3.10;;
76098;SDS011;64828;49.956;8.636;2023-02-28T01:05:06;4.20;;;2.92;;
76098;SDS011;64828;49.956;8.636;2023-02-28T01:05:23;4.55;;;3.05;;
76098;SDS011;64828;49.956;8.636;2023-02-28T01:05:38;4.03;;;3.25;;
76098;SDS011;64828;49.956;8.636;2023-02-28T01:05:56;4.47;;;3.00;;
76098;SDS011;64828;49.956;8.636;2023-02-28T01:06:12;5.13;;;3.30;;
76098;SDS011;64828;49.956;8.636;2023-02-28T01:06:27;4.43;;;3.37;;
76098;SDS011;64828;49.956;8.636;2023-02-28T01:06:43;3.80;;;3.00;;
76098;SDS011;64828;49.956;8.636;2023-02-28T01:06:59;3.90;;;2.92;;
76098;SDS011;64828;49.956;8.636;2023-02-28T01:07:14;3.90;;;3.00;;
76098;SDS011;64828;49.956;8.636;2023-02-28T01:07:30;3.90;;;3.25;;
76098;SDS011;64828;49.956;8.636;2023-02-28T01:07:46;3.95;;;3.10;;
76098;SDS011;64828;49.956;8.636;2023-02-28T01:08:02;4.13;;;3.13;;
76098;SDS011;64828;49.956;8.636;2023-02-28T01:08:17;5.22;;;3.40;;
76098;SDS011;64828;49.956;8.636;2023-02-28T01:08:34;5.18;;;3.38;;
76098;SDS011;64828;49.956;8.636;2023-02-28T01:08:49;3.87;;;3.37;;
76098;SDS011;64828;49.956;8.636;2023-02-28T01:09:06;5.15;;;3.45;;
76098;SDS011;64828;49.956;8.636;2023-02-28T01:09:22;5.82;;;3.20;;
76098;SDS011;64828;49.956;8.636;2023-02-28T01:09:38;5.00;;;3.20;;
76098;SDS011;64828;49.956;8.636;2023-02-28T01:09:53;5.15;;;3.22;;
76098;SDS011;64828;49.956;8.636;2023-02-28T01:10:09;5.28;;;3.20;;
76098;SDS011;64828;49.956;8.636;2023-02-28T01:10:25;5.32;;;3.35;;
76098;SDS011;64828;49.956;8.636;2023-02-28T01:10:46;4.20;;;3.50;;
76098;SDS011;64828;49.956;8.636;2023-02-28T01:11:09;4.75;;;3.30;;
76098;SDS011;64828;49.956;8.636;2023-02-28T01:11:27;5.22;;;3.35;;
76098;SDS011;64828;49.956;8.636;2023-02-28T01:11:43;5.05;;;3.25;;
76098;SDS011;64828;49.956;8.636;2023-02-28T01:11:59;4.50;;;3.33;;
76098;SDS011;64828;49.956;8.636;2023-02-28T01:12:14;5.17;;;3.67;;
76098;SDS011;64828;49.956;8.636;2023-02-28T01:12:30;5.30;;;3.63;;
76098;SDS011;64828;49.956;8.636;2023-02-28T01:12:46;5.40;;;3.55;;
76098;SDS011;64828;49.956;8.636;2023-02-28T01:13:01;4.93;;;3.40;;
76098;SDS011;64828;49.956;8.636;2023-02-28T01:13:18;4.25;;;3.40;;
76098;SDS011;64828;49.956;8.636;2023-02-28T01:13:34;4.53;;;3.40;;
76098;SDS011;64828;49.956;8.636;2023-02-28T01:13:50;4.88;;;3.25;;
76098;SDS011;64828;49.956;8.636;2023-02-28T01:14:06;5.45;;;3.20;;
76098;SDS011;64828;49.956;8.636;2023-02-28T01:14:22;5.63;;;3.20;;
76098;SDS011;64828;49.956;8.636;2023-02-28T01:14:37;4.75;;;3.17;;
76098;SDS011;64828;49.956;8.636;2023-02-28T01:14:53;4.63;;;3.40;;
76098;SDS011;64828;49.956;8.636;2023-02-28T01:15:10;5.55;;;3.30;;
76098;SDS011;64828;49.956;8.636;2023-02-28T01:15:26;4.93;;;3.28;;
76098;SDS011;64828;49.956;8.636;2023-02-28T01:15:43;4.37;;;3.17;;
76098;SDS011;64828;49.956;8.636;2023-02-28T01:16:10;3.95;;;3.05;;
76098;SDS011;64828;49.956;8.636;2023-02-28T01:16:28;4.18;;;3.05;;
76098;SDS011;64828;49.956;8.636;2023-02-28T01:16:43;4.70;;;3.20;;
76098;SDS011;64828;49.956;8.636;2023-02-28T01:16:59;4.55;;;3.28;;
76098;SDS011;64828;49.956;8.636;2023-02-28T01:17:15;3.83;;;3.30;;
76098;SDS011;64828;49.956;8.636;2023-02-28T01:17:31;4.73;;;3.53;;
76098;SDS011;64828;49.956;8.636;2023-02-28T01:17:46;4.97;;;3.60;;
76098;SDS011;64828;49.956;8.636;2023-02-28T01:18:02;4.43;;;3.30;;
76098;SDS011;64828;49.956;8.636;2023-02-28T01:18:18;3.85;;;3.05;;
76098;SDS011;64828;49.956;8.636;2023-02-28T01:18:35;4.18;;;3.20;;
76098;SDS011;64828;49.956;8.636;2023-02-28T01:18:52;4.78;;;3.20;;
76098;SDS011;64828;49.956;8.636;2023-02-28T01:19:08;4.47;;;3.33;;
76098;SDS011;64828;49.956;8.636;2023-02-28T01:19:24;4.73;;;3.50;;
76098;SDS011;64828;49.956;8.636;2023-02-28T01:19:40;4.63;;;3.33;;
76098;SDS011;64828;49.956;8.636;2023-02-28T01:19:55;4.00;;;3.30;;
76098;SDS011;64828;49.956;8.636;2023-02-28T01:20:11;3.57;;;3.10;;
76098;SDS011;64828;49.956;8.636;2023-02-28T01:20:27;4.10;;;3.10;;
76098;SDS011;64828;49.956;8.636;2023-02-28T01:20:43;4.65;;;3.38;;
76098;SDS011;64828;49.956;8.636;2023-02-28T01:21:03;4.32;;;3.40;;
76098;SDS011;64828;49.956;8.636;2023-02-28T01:21:24;4.63;;;3.50;;
76098;SDS011;64828;49.956;8.636;2023-02-28T01:21:40;4.68;;;3.45;;
76098;SDS011;64828;49.956;8.636;2023-02-28T01:21:56;5.30;;;3.40;;
76098;SDS011;64828;49.956;8.636;2023-02-28T01:22:11;5.25;;;3.53;;
76098;SDS011;64828;49.956;8.636;2023-02-28T01:22:27;4.40;;;3.60;;
76098;SDS011;64828;49.956;8.636;2023-02-28T01:22:43;4.20;;;3.60;;
76098;SDS011;64828;49.956;8.636;2023-02-28T01:22:59;4.97;;;3.50;;
76098;SDS011;64828;49.956;8.636;2023-02-28T01:23:14;5.40;;;3.53;;
76098;SDS011;64828;49.956;8.636;2023-02-28T01:23:30;4.67;;;3.57;;
76098;SDS011;64828;49.956;8.636;2023-02-28T01:23:46;4.63;;;3.47;;
76098;SDS011;64828;49.956;8.636;2023-02-28T01:24:04;4.78;;;3.30;;
76098;SDS011;64828;49.956;8.636;2023-02-28T01:24:20;4.70;;;3.33;;
76098;SDS011;64828;49.956;8.636;2023-02-28T01:24:37;4.83;;;3.57;;
76098;SDS011;64828;49.956;8.636;2023-02-28T01:24:52;5.45;;;3.60;;
76098;SDS011;64828;49.956;8.636;2023-02-28T01:25:08;6.28;;;3.60;;
76098;SDS011;64828;49.956;8.636;2023-02-28T01:25:24;5.47;;;3.78;;
76098;SDS011;64828;49.956;8.636;2023-02-28T01:25:40;4.67;;;3.67;;
76098;SDS011;64828;49.956;8.636;2023-02-28T01:25:56;4.53;;;3.53;;
76098;SDS011;64828;49.956;8.636;2023-02-28T01:26:33;4.30;;;3.40;;
76098;SDS011;64828;49.956;8.636;2023-02-28T01:26:48;4.32;;;3.50;;
76098;SDS011;64828;49.956;8.636;2023-02-28T01:27:04;5.63;;;3.60;;
76098;SDS011;64828;49.956;8.636;2023-02-28T01:27:19;5.70;;;3.50;;
76098;SDS011;64828;49.956;8.636;2023-02-28T01:27:35;4.72;;;3.60;;
76098;SDS011;64828;49.956;8.636;2023-02-28T01:27:51;4.60;;;3.50;;
76098;SDS011;64828;49.956;8.636;2023-02-28T01:28:07;4.32;;;3.35;;
76098;SDS011;64828;49.956;8.636;2023-02-28T01:28:22;4.43;;;3.55;;
76098;SDS011;64828;49.956;8.636;2023-02-28T01:28:38;4.27;;;3.50;;
76098;SDS011;64828;49.956;8.636;2023-02-28T01:28:54;4.50;;;3.40;;
76098;SDS011;64828;49.956;8.636;2023-02-28T01:29:10;4.18;;;3.45;;
76098;SDS011;64828;49.956;8.636;2023-02-28T01:29:25;4.07;;;3.58;;
76098;SDS011;64828;49.956;8.636;2023-02-28T01:29:41;4.87;;;3.80;;
76098;SDS011;64828;49.956;8.636;2023-02-28T01:29:56;5.68;;;3.70;;
76098;SDS011;64828;49.956;8.636;2023-02-28T01:30:12;6.10;;;3.63;;
76098;SDS011;64828;49.956;8.636;2023-02-28T01:30:29;5.28;;;3.60;;
76098;SDS011;64828;49.956;8.636;2023-02-28T01:30:49;5.00;;;3.53;;
76098;SDS011;64828;49.956;8.636;2023-02-28T01:31:06;5.03;;;3.60;;
76098;SDS011;64828;49.956;8.636;2023-02-28T01:31:22;5.60;;;3.65;;
76098;SDS011;64828;49.956;8.636;2023-02-28T01:31:39;6.30;;;3.55;;
76098;SDS011;64828;49.956;8.636;2023-02-28T01:31:55;5.33;;;3.60;;
76098;SDS011;64828;49.956;8.636;2023-02-28T01:32:11;4.80;;;3.55;;
76098;SDS011;64828;49.956;8.636;2023-02-28T01:32:27;4.45;;;3.50;;
76098;SDS011;64828;49.956;8.636;2023-02-28T01:32:43;4.87;;;3.70;;
76098;SDS011;64828;49.956;8.636;2023-02-28T01:32:58;4.20;;;3.45;;
76098;SDS011;64828;49.956;8.636;2023-02-28T01:33:14;4.55;;;3.55;;
76098;SDS011;64828;49.956;8.636;2023-02-28T01:33:30;4.72;;;3.47;;
76098;SDS011;64828;49.956;8.636;2023-02-28T01:33:47;4.05;;;3.33;;
76098;SDS011;64828;49.956;8.636;2023-02-28T01:34:03;4.97;;;3.60;;
76098;SDS011;64828;49.956;8.636;2023-02-28T01:34:19;5.88;;;3.70;;
76098;SDS011;64828;49.956;8.636;2023-02-28T01:34:35;5.03;;;3.53;;
76098;SDS011;64828;49.956;8.636;2023-02-28T01:34:50;5.17;;;3.80;;
76098;SDS011;64828;49.956;8.636;2023-02-28T01:35:06;5.70;;;3.88;;
76098;SDS011;64828;49.956;8.636;2023-02-28T01:35:22;5.90;;;3.90;;
76098;SDS011;64828;49.956;8.636;2023-02-28T01:35:38;6.07;;;3.97;;
76098;SDS011;64828;49.956;8.636;2023-02-28T01:36:06;5.57;;;3.70;;
76098;SDS011;64828;49.956;8.636;2023-02-28T01:36:32;5.03;;;3.75;;
76098;SDS011;64828;49.956;8.636;2023-02-28T01:36:48;4.78;;;3.60;;
76098;SDS011;64828;49.956;8.636;2023-02-28T01:37:04;4.60;;;3.50;;
76098;SDS011;64828;49.956;8.636;2023-02-28T01:37:19;5.17;;;3.70;;
76098;SDS011;64828;49.956;8.636;2023-02-28T01:37:35;5.45;;;3.67;;
76098;SDS011;64828;49.956;8.636;2023-02-28T01:37:51;5.80;;;3.80;;
76098;SDS011;64828;49.956;8.636;2023-02-28T01:38:06;5.30;;;3.70;;
76098;SDS011;64828;49.956;8.636;2023-02-28T01:38:22;5.75;;;3.70;;
76098;SDS011;64828;49.956;8.636;2023-02-28T01:38:37;6.10;;;3.70;;
76098;SDS011;64828;49.956;8.636;2023-02-28T01:38:54;5.43;;;3.65;;
76098;SDS011;64828;49.956;8.636;2023-02-28T01:39:09;5.25;;;3.80;;